createdAt,value
2023-04-04T00:00:45.269Z,12.00
2023-04-04T00:03:17.703Z,14.32
2023-04-04T00:05:45.900Z,15.23
2023-04-04T00:08:13.395Z,16.00
2023-04-04T00:10:41.534Z,15.93
2023-04-04T00:13:09.821Z,14.20
2023-04-04T00:15:37.473Z,12.77
2023-04-04T00:18:05.097Z,15.98
2023-04-04T00:20:32.752Z,13.18
2023-04-04T00:23:00.679Z,14.75
2023-04-04T00:25:28.387Z,16.23
2023-04-04T00:27:56.278Z,17.85
2023-04-04T00:30:23.901Z,13.82
2023-04-04T00:32:51.870Z,14.50
2023-04-04T00:35:19.541Z,14.93
2023-04-04T00:37:46.798Z,14.82
2023-04-04T00:40:14.901Z,13.15
2023-04-04T00:42:42.474Z,15.95
2023-04-04T00:45:11.146Z,17.58
2023-04-04T00:47:43.380Z,13.18
2023-04-04T00:50:11.324Z,10.32
2023-04-04T00:52:38.839Z,11.50
2023-04-04T00:55:07.379Z,12.50
2023-04-04T00:57:36.187Z,10.07
2023-04-04T01:00:06.663Z,13.88
2023-04-04T01:02:35.823Z,10.40
2023-04-04T01:05:04.609Z,13.40
2023-04-04T01:07:32.652Z,12.80
2023-04-04T01:10:01.625Z,11.23
2023-04-04T01:12:29.186Z,11.52
2023-04-04T01:14:56.911Z,12.03
2023-04-04T01:17:26.107Z,12.98
2023-04-04T01:20:14.161Z,13.05
2023-04-04T01:22:44.042Z,10.70
2023-04-04T01:25:13.312Z,11.33
2023-04-04T01:27:40.741Z,12.00
2023-04-04T01:30:10.496Z,9.50
2023-04-04T01:32:51.980Z,12.35
2023-04-04T01:35:25.836Z,15.70
2023-04-04T01:38:01.155Z,13.00
2023-04-04T01:40:35.600Z,13.63
2023-04-04T01:43:03.922Z,9.50
2023-04-04T01:45:33.067Z,12.90
2023-04-04T01:48:00.433Z,10.55
2023-04-04T01:50:28.032Z,12.93
2023-04-04T01:52:55.363Z,12.53
2023-04-04T01:55:22.974Z,11.05
2023-04-04T01:57:51.334Z,13.23
2023-04-04T02:00:19.420Z,12.10
2023-04-04T02:02:46.729Z,13.47
2023-04-04T02:05:14.572Z,14.52
2023-04-04T02:07:42.008Z,13.00
2023-04-04T02:10:09.900Z,16.88
2023-04-04T02:12:37.155Z,12.38
2023-04-04T02:15:05.273Z,13.80
2023-04-04T02:17:32.710Z,13.38
2023-04-04T02:20:00.305Z,12.25
2023-04-04T02:22:27.872Z,12.45
2023-04-04T02:24:57.704Z,13.27
2023-04-04T02:27:25.173Z,13.18
2023-04-04T02:29:53.967Z,13.70
2023-04-04T02:32:21.712Z,12.73
2023-04-04T02:34:49.316Z,12.30
2023-04-04T02:37:17.925Z,10.93
2023-04-04T02:39:45.765Z,13.52
2023-04-04T02:42:13.084Z,13.80
2023-04-04T02:44:40.677Z,10.60
2023-04-04T02:47:08.022Z,13.13
2023-04-04T02:49:35.940Z,12.80
2023-04-04T02:52:03.227Z,12.77
2023-04-04T02:54:30.898Z,10.73
2023-04-04T02:56:58.158Z,13.80
2023-04-04T02:59:26.110Z,11.70
2023-04-04T03:01:53.597Z,12.95
2023-04-04T03:04:21.306Z,12.53
2023-04-04T03:06:48.529Z,12.17
2023-04-04T03:09:16.284Z,13.25
2023-04-04T03:11:43.538Z,11.13
2023-04-04T03:14:11.432Z,13.77
2023-04-04T03:16:39.601Z,11.70
2023-04-04T03:19:07.629Z,10.93
2023-04-04T03:21:35.046Z,11.18
2023-04-04T03:24:02.769Z,13.98
2023-04-04T03:26:30.127Z,12.03
2023-04-04T03:28:57.739Z,11.67
2023-04-04T03:31:25.235Z,12.45
2023-04-04T03:33:52.983Z,10.40
2023-04-04T03:36:21.227Z,11.07
2023-04-04T03:38:48.893Z,13.43
2023-04-04T03:41:16.278Z,11.50
2023-04-04T03:43:45.171Z,12.80
2023-04-04T03:46:12.612Z,13.73
2023-04-04T03:48:40.338Z,12.93
2023-04-04T03:51:07.878Z,12.23
2023-04-04T03:53:36.893Z,12.27
2023-04-04T03:56:04.877Z,14.80
2023-04-04T03:58:32.495Z,13.97
2023-04-04T04:00:59.845Z,13.18
2023-04-04T04:03:27.614Z,12.20
2023-04-04T04:05:55.478Z,12.00
2023-04-04T04:08:24.017Z,12.93
2023-04-04T04:10:52.640Z,11.60
2023-04-04T04:13:20.602Z,12.18
2023-04-04T04:15:48.038Z,13.70
2023-04-04T04:18:15.853Z,13.53
2023-04-04T04:20:43.316Z,17.60
2023-04-04T04:23:11.263Z,14.27
2023-04-04T04:25:38.543Z,14.00
2023-04-04T04:28:06.135Z,17.07
2023-04-04T04:30:33.486Z,12.73
2023-04-04T04:33:01.099Z,15.47
2023-04-04T04:35:28.467Z,17.30
2023-04-04T04:37:56.560Z,12.50
2023-04-04T04:40:23.816Z,16.63
2023-04-04T04:42:52.003Z,15.57
2023-04-04T04:45:20.877Z,14.47
2023-04-04T04:47:48.493Z,14.20
2023-04-04T04:50:16.353Z,14.70
2023-04-04T04:52:44.327Z,12.93
2023-04-04T04:55:12.049Z,15.57
2023-04-04T04:57:39.596Z,13.63
2023-04-04T05:00:07.890Z,16.97
2023-04-04T05:02:35.782Z,17.13
2023-04-04T05:05:03.287Z,13.70
2023-04-04T05:07:30.863Z,11.67
2023-04-04T05:09:58.112Z,14.33
2023-04-04T05:12:25.658Z,13.23
2023-04-04T05:14:53.035Z,16.40
2023-04-04T05:17:22.750Z,15.60
2023-04-04T05:19:50.125Z,15.00
2023-04-04T05:22:17.689Z,14.23
2023-04-04T05:24:44.950Z,14.10
2023-04-04T05:27:12.613Z,17.13
2023-04-04T05:29:39.928Z,15.05
2023-04-04T05:32:07.739Z,16.60
2023-04-04T05:34:35.139Z,17.43
2023-04-04T05:37:02.656Z,16.98
2023-04-04T05:39:29.977Z,15.27
2023-04-04T05:41:57.579Z,18.07
2023-04-04T05:44:25.783Z,18.87
2023-04-04T05:46:53.353Z,18.20
2023-04-04T05:49:20.636Z,18.17
2023-04-04T05:51:48.189Z,15.50
2023-04-04T05:54:15.391Z,13.80
2023-04-04T05:56:42.935Z,11.45
2023-04-04T05:59:10.316Z,13.57
2023-04-04T06:01:37.853Z,15.82
2023-04-04T06:04:05.083Z,16.15
2023-04-04T06:06:34.727Z,12.18
2023-04-04T06:09:02.417Z,11.85
2023-04-04T06:11:30.125Z,15.52
2023-04-04T06:13:57.366Z,18.03
2023-04-04T06:16:24.976Z,19.33
2023-04-04T06:18:52.282Z,19.75
2023-04-04T06:21:19.811Z,15.88
2023-04-04T06:23:47.395Z,11.77
2023-04-04T06:26:15.110Z,12.23
2023-04-04T06:28:51.443Z,14.38
2023-04-04T06:31:19.007Z,13.70
2023-04-04T06:33:46.614Z,28.58
2023-04-04T06:36:14.133Z,22.60
2023-04-04T06:38:41.351Z,16.02
2023-04-04T06:41:08.884Z,17.00
2023-04-04T06:43:36.131Z,10.77
2023-04-04T06:46:04.158Z,9.15
2023-04-04T06:48:31.436Z,10.20
2023-04-04T06:50:59.008Z,10.27
2023-04-04T06:53:26.348Z,9.57
2023-04-04T06:55:53.898Z,13.02
2023-04-04T06:58:21.358Z,12.82
2023-04-04T07:00:49.004Z,10.68
2023-04-04T07:03:16.992Z,10.87
2023-04-04T07:05:44.618Z,13.60
2023-04-04T07:08:11.938Z,12.35
2023-04-04T07:10:40.677Z,9.75
2023-04-04T07:13:08.598Z,12.43
2023-04-04T07:15:36.432Z,12.55
2023-04-04T07:18:03.801Z,8.70
2023-04-04T07:20:32.372Z,9.05
2023-04-04T07:22:59.679Z,9.48
2023-04-04T07:25:27.294Z,8.40
2023-04-04T07:28:09.642Z,10.25
2023-04-04T07:30:40.064Z,9.95
2023-04-04T07:33:07.711Z,9.30
2023-04-04T07:35:35.836Z,8.77
2023-04-04T07:38:04.386Z,20.35
2023-04-04T07:40:32.119Z,9.52
2023-04-04T07:42:59.457Z,7.88
2023-04-04T07:45:27.138Z,7.25
2023-04-04T07:47:54.633Z,7.85
2023-04-04T07:50:22.745Z,12.60
2023-04-04T07:52:54.510Z,12.52
2023-04-04T07:55:25.276Z,9.75
2023-04-04T07:57:54.671Z,8.88
2023-04-04T08:00:25.847Z,7.10
2023-04-04T08:02:59.140Z,6.32
2023-04-04T08:05:27.207Z,7.95
2023-04-04T08:07:54.725Z,9.20
2023-04-04T08:10:22.306Z,5.10
2023-04-04T08:12:49.667Z,6.03
2023-04-04T08:15:17.348Z,8.52
2023-04-04T08:17:44.807Z,7.28
2023-04-04T08:20:13.307Z,7.47
2023-04-04T08:22:42.239Z,5.45
2023-04-04T08:25:11.343Z,5.63
2023-04-04T08:27:44.140Z,5.70
2023-04-04T08:30:14.489Z,7.10
2023-04-04T08:32:44.354Z,6.97
2023-04-04T08:35:12.989Z,7.93
2023-04-04T08:37:45.885Z,6.90
2023-04-04T08:40:14.390Z,6.20
2023-04-04T08:42:47.143Z,5.13
2023-04-04T08:45:22.742Z,6.05
2023-04-04T08:47:52.563Z,6.90
2023-04-04T08:50:21.780Z,6.15
2023-04-04T08:52:50.037Z,5.22
2023-04-04T08:55:18.048Z,4.18
2023-04-04T08:57:45.374Z,4.38
2023-04-04T09:00:14.786Z,5.57
2023-04-04T09:03:03.864Z,5.22
2023-04-04T09:05:33.031Z,6.50
2023-04-04T09:08:00.987Z,4.18
2023-04-04T09:10:29.910Z,7.82
2023-04-04T09:13:08.678Z,5.13
2023-04-04T09:15:52.398Z,4.13
2023-04-04T09:18:20.017Z,6.05
2023-04-04T09:20:48.887Z,5.43
2023-04-04T09:23:23.593Z,4.82
2023-04-04T09:28:26.433Z,10.30
2023-04-04T09:30:54.098Z,4.25
2023-04-04T09:33:26.396Z,3.17
2023-04-04T09:36:07.823Z,5.93
2023-04-04T09:38:44.190Z,3.88
2023-04-04T09:41:16.226Z,3.35
2023-04-04T09:43:46.229Z,3.95
2023-04-04T09:46:16.005Z,3.30
2023-04-04T09:48:51.131Z,4.50
2023-04-04T09:51:18.977Z,4.60
2023-04-04T09:53:49.021Z,4.95
2023-04-04T09:56:17.126Z,5.35
2023-04-04T09:59:00.771Z,5.60
2023-04-04T10:01:31.605Z,4.43
2023-04-04T10:03:59.584Z,4.05
2023-04-04T10:06:27.614Z,5.13
2023-04-04T10:08:56.858Z,5.15
2023-04-04T10:11:33.781Z,4.95
2023-04-04T10:14:05.956Z,5.03
2023-04-04T10:16:37.220Z,4.00
2023-04-04T10:19:08.032Z,4.53
2023-04-04T10:21:36.068Z,4.43
2023-04-04T10:24:09.992Z,7.03
2023-04-04T10:26:38.065Z,8.55
2023-04-04T10:29:06.151Z,8.55
2023-04-04T10:31:41.622Z,5.68
2023-04-04T10:34:36.176Z,3.30
2023-04-04T10:37:13.299Z,4.97
2023-04-04T10:40:10.259Z,5.68
2023-04-04T10:42:47.266Z,5.80
2023-04-04T10:45:21.481Z,3.70
2023-04-04T10:47:50.935Z,5.20
2023-04-04T10:50:20.723Z,4.90
2023-04-04T10:52:49.419Z,7.47
2023-04-04T10:55:17.315Z,6.20
2023-04-04T10:57:52.016Z,6.03
2023-04-04T11:00:23.391Z,6.43
2023-04-04T11:02:57.895Z,6.55
2023-04-04T11:05:34.472Z,5.95
2023-04-04T11:08:09.298Z,7.43
2023-04-04T11:10:57.921Z,5.90
2023-04-04T11:13:35.884Z,10.80
2023-04-04T11:16:15.298Z,9.35
2023-04-04T11:18:46.000Z,4.97
2023-04-04T11:21:20.665Z,6.40
2023-04-04T11:23:48.603Z,5.82
2023-04-04T11:26:35.601Z,6.07
2023-04-04T11:29:09.893Z,2.10
2023-04-04T11:31:48.809Z,2.45
2023-04-04T11:34:31.996Z,4.82
2023-04-04T11:37:02.036Z,6.47
2023-04-04T11:39:31.487Z,7.57
2023-04-04T11:42:14.997Z,4.50
2023-04-04T11:45:04.459Z,6.38
2023-04-04T11:47:32.041Z,4.25
2023-04-04T11:50:07.374Z,4.80
2023-04-04T11:52:35.697Z,4.97
2023-04-04T11:55:23.140Z,3.90
2023-04-04T11:57:51.479Z,3.38
2023-04-04T12:00:35.064Z,4.88
2023-04-04T12:03:04.621Z,4.55
2023-04-04T12:05:32.513Z,3.88
2023-04-04T12:08:02.335Z,8.07
2023-04-04T12:10:34.541Z,9.10
2023-04-04T12:13:05.663Z,5.07
2023-04-04T12:15:38.132Z,4.97
2023-04-04T12:18:09.905Z,4.93
2023-04-04T12:20:41.671Z,6.65
2023-04-04T12:23:09.798Z,5.78
2023-04-04T12:25:40.347Z,8.02
2023-04-04T12:28:08.872Z,5.88
2023-04-04T12:30:38.501Z,6.55
2023-04-04T12:33:07.769Z,5.95
2023-04-04T12:35:36.344Z,4.00
2023-04-04T12:38:10.723Z,3.85
2023-04-04T12:40:39.738Z,5.75
2023-04-04T12:43:09.468Z,5.75
2023-04-04T12:45:39.638Z,3.15
2023-04-04T12:48:18.238Z,4.90
2023-04-04T12:51:00.859Z,7.38
2023-04-04T12:53:30.364Z,4.55
2023-04-04T12:56:04.853Z,7.60
2023-04-04T12:58:34.882Z,7.32
2023-04-04T13:01:04.389Z,5.60
2023-04-04T13:03:33.924Z,8.35
2023-04-04T13:06:02.642Z,8.32
2023-04-04T13:08:30.294Z,8.20
2023-04-04T13:11:07.052Z,7.43
2023-04-04T13:13:44.283Z,9.27
2023-04-04T13:16:38.229Z,12.13
2023-04-04T13:19:05.785Z,7.22
2023-04-04T13:21:35.310Z,7.35
2023-04-04T13:24:04.094Z,4.65
2023-04-04T13:26:31.819Z,5.00
2023-04-04T13:28:59.223Z,5.80
2023-04-04T13:31:27.270Z,7.70
2023-04-04T13:33:54.586Z,8.68
2023-04-04T13:36:22.186Z,9.15
2023-04-04T13:38:49.567Z,8.68
2023-04-04T13:41:17.173Z,8.48
2023-04-04T13:43:44.479Z,8.90
2023-04-04T13:46:12.253Z,9.20
2023-04-04T13:48:39.593Z,8.48
2023-04-04T13:51:07.330Z,8.82
2023-04-04T13:53:34.618Z,10.02
2023-04-04T13:56:17.785Z,9.60
2023-04-04T13:58:46.537Z,7.13
2023-04-04T14:01:14.173Z,5.05
2023-04-04T14:03:41.642Z,7.43
2023-04-04T14:06:10.836Z,5.43
2023-04-04T14:08:39.551Z,4.90
2023-04-04T14:11:07.268Z,7.10
2023-04-04T14:13:34.690Z,9.40
2023-04-04T14:16:02.206Z,8.60
2023-04-04T14:18:29.529Z,4.75
2023-04-04T14:20:57.117Z,6.80
2023-04-04T14:23:24.439Z,5.57
2023-04-04T14:25:52.243Z,7.45
2023-04-04T14:28:19.547Z,8.32
2023-04-04T14:30:47.111Z,8.13
2023-04-04T14:33:14.440Z,6.82
2023-04-04T14:35:42.330Z,7.47
2023-04-04T14:38:09.884Z,6.60
2023-04-04T14:40:37.606Z,4.72
2023-04-04T14:43:04.858Z,6.85
2023-04-04T14:45:33.265Z,6.50
2023-04-04T14:48:00.715Z,4.82
2023-04-04T14:50:28.315Z,6.80
2023-04-04T14:52:56.765Z,6.93
2023-04-04T14:55:24.652Z,11.30
2023-04-04T15:00:24.364Z,7.80
2023-04-04T15:02:52.611Z,8.95
2023-04-04T15:05:20.494Z,12.52
2023-04-04T15:07:49.500Z,5.95
2023-04-04T15:10:17.329Z,11.43
2023-04-04T15:12:44.686Z,7.85
2023-04-04T15:15:13.394Z,8.20
2023-04-04T15:17:42.286Z,5.35
2023-04-04T15:20:10.929Z,6.13
2023-04-04T15:22:38.819Z,6.25
2023-04-04T15:25:08.410Z,7.57
2023-04-04T15:27:36.193Z,10.40
2023-04-04T15:30:04.412Z,8.75
2023-04-04T15:32:31.669Z,11.93
2023-04-04T15:34:59.316Z,7.03
2023-04-04T15:37:26.658Z,8.90
2023-04-04T15:39:54.840Z,8.07
2023-04-04T15:42:22.166Z,9.68
2023-04-04T15:44:49.697Z,8.98
2023-04-04T15:47:17.361Z,7.65
2023-04-04T15:49:44.882Z,8.15
2023-04-04T15:52:12.397Z,7.15
2023-04-04T15:54:39.972Z,5.72
2023-04-04T15:57:07.281Z,6.93
2023-04-04T15:59:34.943Z,10.85
2023-04-04T16:02:06.493Z,6.93
2023-04-04T16:04:34.424Z,7.97
2023-04-04T16:07:01.713Z,7.35
2023-04-04T16:09:29.434Z,8.95
2023-04-04T16:11:57.306Z,10.02
2023-04-04T16:14:25.163Z,15.05
2023-04-04T16:16:52.719Z,13.50
2023-04-04T16:19:20.643Z,10.13
2023-04-04T16:21:49.374Z,8.95
2023-04-04T16:24:16.961Z,9.07
2023-04-04T16:26:47.505Z,12.88
2023-04-04T16:29:18.578Z,8.63
2023-04-04T16:31:46.003Z,8.88
2023-04-04T16:34:13.891Z,15.40
2023-04-04T16:36:41.404Z,9.07
2023-04-04T16:39:09.102Z,12.55
2023-04-04T16:41:40.895Z,14.45
2023-04-04T16:44:08.779Z,14.55
2023-04-04T16:46:36.472Z,13.95
2023-04-04T16:49:04.039Z,16.30
2023-04-04T16:51:32.166Z,17.88
2023-04-04T16:53:59.800Z,13.73
2023-04-04T16:56:27.122Z,12.93
2023-04-04T16:58:54.727Z,12.07
2023-04-04T17:01:23.072Z,14.05
2023-04-04T17:03:50.978Z,13.18
2023-04-04T17:06:18.312Z,12.07
2023-04-04T17:08:46.836Z,8.10
2023-04-04T17:11:14.380Z,9.15
2023-04-04T17:13:42.345Z,8.40
2023-04-04T17:16:10.014Z,9.63
2023-04-04T17:18:37.761Z,11.80
2023-04-04T17:21:05.481Z,15.25
2023-04-04T17:23:33.802Z,11.48
2023-04-04T17:26:01.072Z,11.05
2023-04-04T17:28:28.644Z,11.18
2023-04-04T17:30:56.517Z,7.35
2023-04-04T17:33:24.134Z,7.65
2023-04-04T17:35:51.559Z,8.07
2023-04-04T17:38:20.661Z,11.00
2023-04-04T17:40:49.671Z,10.27
2023-04-04T17:43:17.204Z,15.45
2023-04-04T17:45:45.015Z,13.07
2023-04-04T17:48:12.873Z,14.57
2023-04-04T17:50:40.633Z,16.98
2023-04-04T17:53:08.527Z,18.73
2023-04-04T17:55:36.845Z,16.58
2023-04-04T17:58:04.390Z,15.35
2023-04-04T18:00:31.610Z,17.90
2023-04-04T18:02:59.326Z,15.77
2023-04-04T18:05:27.248Z,15.82
2023-04-04T18:07:54.905Z,14.77
2023-04-04T18:10:22.095Z,11.27
2023-04-04T18:12:49.711Z,14.02
2023-04-04T18:15:16.991Z,11.63
2023-04-04T18:17:44.594Z,10.35
2023-04-04T18:20:16.343Z,11.50
2023-04-04T18:22:48.944Z,10.75
2023-04-04T18:25:17.929Z,10.93
2023-04-04T18:27:46.078Z,13.90
2023-04-04T18:30:13.632Z,13.25
2023-04-04T18:32:41.426Z,18.05
2023-04-04T18:35:09.113Z,18.10
2023-04-04T18:37:37.565Z,16.98
2023-04-04T18:40:05.558Z,19.00
2023-04-04T18:42:35.195Z,19.75
2023-04-04T18:45:03.062Z,19.60
2023-04-04T18:47:30.671Z,19.73
2023-04-04T18:49:58.032Z,23.48
2023-04-04T18:52:25.634Z,20.67
2023-04-04T18:54:52.948Z,28.00
2023-04-04T18:57:20.498Z,21.75
2023-04-04T18:59:47.828Z,22.38
2023-04-04T19:02:15.361Z,18.00
2023-04-04T19:04:43.879Z,22.63
2023-04-04T19:07:12.116Z,19.60
2023-04-04T19:09:41.381Z,18.73
2023-04-04T19:12:09.905Z,20.90
2023-04-04T19:14:37.266Z,22.17
2023-04-04T19:17:04.989Z,26.35
2023-04-04T19:19:32.298Z,25.58
2023-04-04T19:22:00.076Z,27.63
2023-04-04T19:24:27.488Z,29.13
2023-04-04T19:26:55.104Z,25.92
2023-04-04T19:29:22.506Z,31.30
2023-04-04T19:31:52.794Z,29.98
2023-04-04T19:34:20.119Z,26.92
2023-04-04T19:36:47.801Z,28.50
2023-04-04T19:39:20.133Z,29.75
2023-04-04T19:41:47.790Z,32.00
2023-04-04T19:44:21.380Z,34.03
2023-04-04T19:46:50.205Z,33.15
2023-04-04T19:49:18.045Z,32.58
2023-04-04T19:51:57.678Z,34.63
2023-04-04T19:54:40.927Z,27.48
2023-04-04T19:57:19.597Z,32.63
2023-04-04T20:00:03.914Z,35.42
2023-04-04T20:02:31.486Z,35.63
2023-04-04T20:04:59.050Z,53.05
2023-04-04T20:07:29.045Z,50.83
2023-04-04T20:09:56.754Z,52.10
2023-04-04T20:12:25.757Z,51.95
2023-04-04T20:14:59.425Z,58.17
2023-04-04T20:17:27.191Z,57.35
2023-04-04T20:19:54.515Z,46.78
2023-04-04T20:22:23.529Z,49.40
2023-04-04T20:24:51.027Z,47.83
2023-04-04T20:27:27.798Z,48.50
2023-04-04T20:29:55.138Z,48.95
2023-04-04T20:32:22.953Z,47.40
2023-04-04T20:34:50.728Z,36.78
2023-04-04T20:37:25.017Z,39.45
2023-04-04T20:40:00.186Z,35.45
2023-04-04T20:42:29.395Z,62.05
2023-04-04T20:45:33.157Z,59.13
2023-04-04T20:48:03.883Z,53.78
2023-04-04T20:50:36.304Z,51.83
2023-04-04T20:53:06.332Z,59.97
2023-04-04T20:55:35.818Z,61.33
2023-04-04T20:58:27.002Z,55.90
2023-04-04T21:00:57.050Z,49.78
2023-04-04T21:03:31.486Z,46.13
2023-04-04T21:06:14.736Z,39.03
2023-04-04T21:08:50.743Z,45.42
2023-04-04T21:11:33.466Z,55.10
2023-04-04T21:14:01.110Z,50.85
2023-04-04T21:16:29.601Z,68.57
2023-04-04T21:19:01.833Z,58.67
2023-04-04T21:21:29.983Z,52.13
2023-04-04T21:24:01.690Z,51.47
2023-04-04T21:26:41.020Z,49.25
2023-04-04T21:29:21.993Z,65.72
2023-04-04T21:31:52.653Z,73.97
2023-04-04T21:34:23.589Z,62.28
2023-04-04T21:36:55.978Z,56.30
2023-04-04T21:39:29.548Z,84.82
2023-04-04T21:42:08.511Z,92.43
2023-04-04T21:44:36.682Z,75.45
2023-04-04T21:47:04.746Z,89.75
2023-04-04T21:49:32.354Z,89.38
2023-04-04T21:51:59.666Z,90.35
2023-04-04T21:54:27.256Z,86.88
2023-04-04T21:56:54.471Z,87.28
2023-04-04T21:59:22.042Z,82.35
2023-04-04T22:01:50.830Z,80.87
2023-04-04T22:04:18.474Z,79.93
2023-04-04T22:06:46.122Z,66.07
2023-04-04T22:09:16.147Z,63.97
2023-04-04T22:11:44.634Z,58.80
2023-04-04T22:14:18.204Z,55.90
2023-04-04T22:16:45.830Z,51.78
2023-04-04T22:19:13.595Z,59.70
2023-04-04T22:21:48.221Z,59.05
2023-04-04T22:24:18.515Z,53.83
2023-04-04T22:26:46.240Z,47.08
2023-04-04T22:29:14.267Z,52.55
2023-04-04T22:31:41.701Z,53.17
2023-04-04T22:34:09.672Z,52.95
2023-04-04T22:36:38.732Z,43.67
2023-04-04T22:39:06.415Z,43.67
2023-04-04T22:41:33.705Z,43.92
2023-04-04T22:44:01.286Z,45.50
2023-04-04T22:46:29.635Z,47.22
2023-04-04T22:49:05.663Z,41.53
2023-04-04T22:51:44.085Z,37.40
2023-04-04T22:54:16.790Z,47.33
2023-04-04T22:56:44.657Z,43.20
2023-04-04T22:59:12.530Z,55.53
2023-04-04T23:01:40.253Z,65.77
2023-04-04T23:04:08.287Z,53.80
2023-04-04T23:06:36.127Z,68.85
2023-04-04T23:09:04.255Z,65.77
2023-04-04T23:11:31.527Z,63.70
2023-04-04T23:14:00.502Z,56.20
2023-04-04T23:16:29.044Z,56.83
2023-04-04T23:18:57.252Z,60.60
2023-04-04T23:21:25.096Z,66.43
2023-04-04T23:23:52.818Z,58.70
2023-04-04T23:26:20.086Z,68.03
2023-04-04T23:28:47.834Z,85.13
2023-04-04T23:31:16.367Z,82.53
2023-04-04T23:33:44.144Z,94.63
2023-04-04T23:36:11.414Z,85.73
2023-04-04T23:38:38.993Z,84.43
2023-04-04T23:41:06.818Z,90.80
2023-04-04T23:43:36.072Z,86.43
2023-04-04T23:46:03.805Z,80.00
2023-04-04T23:48:32.101Z,89.60
2023-04-04T23:51:01.843Z,89.77
2023-04-04T23:53:29.688Z,85.77
2023-04-04T23:55:57.043Z,89.00
2023-04-04T23:58:24.737Z,72.53
